createdAt,value
2018-12-02T00:02:09.760Z,3.35
2018-12-02T00:04:39.462Z,3.25
2018-12-02T00:07:09.425Z,2.77
2018-12-02T00:09:39.572Z,3.32
2018-12-02T00:12:09.724Z,3.08
2018-12-02T00:14:39.680Z,3.26
2018-12-02T00:17:09.612Z,3.05
2018-12-02T00:19:40.863Z,3.52
2018-12-02T00:22:10.114Z,2.67
2018-12-02T00:24:39.839Z,3.17
2018-12-02T00:27:09.784Z,3.15
2018-12-02T00:29:39.840Z,3.08
2018-12-02T00:32:09.828Z,2.80
2018-12-02T00:34:39.804Z,2.72
2018-12-02T00:37:09.993Z,2.83
2018-12-02T00:39:41.171Z,2.74
2018-12-02T00:42:10.376Z,3.43
2018-12-02T00:44:40.101Z,2.90
2018-12-02T00:47:10.096Z,3.12
2018-12-02T00:49:40.097Z,3.52
2018-12-02T00:52:10.172Z,3.27
2018-12-02T00:54:40.140Z,3.00
2018-12-02T00:57:10.111Z,3.35
2018-12-02T00:59:40.205Z,3.00
2018-12-02T01:02:10.853Z,4.10
2018-12-02T01:04:41.844Z,3.98
2018-12-02T01:07:11.049Z,3.20
2018-12-02T01:09:40.333Z,3.10
2018-12-02T01:12:11.638Z,4.10
2018-12-02T01:14:40.855Z,4.37
2018-12-02T01:17:10.413Z,5.65
2018-12-02T01:19:40.451Z,5.30
2018-12-02T01:22:10.300Z,5.97
2018-12-02T01:24:40.496Z,4.86
2018-12-02T01:27:10.448Z,3.33
2018-12-02T01:29:40.428Z,3.42
2018-12-02T01:32:10.738Z,3.30
2018-12-02T01:34:40.604Z,3.40
2018-12-02T01:37:10.624Z,2.75
2018-12-02T01:39:40.669Z,3.02
2018-12-02T01:42:10.684Z,2.70
2018-12-02T01:44:40.683Z,3.40
2018-12-02T01:47:10.821Z,2.40
2018-12-02T01:49:42.023Z,2.74
2018-12-02T01:52:11.157Z,3.40
2018-12-02T01:54:40.844Z,3.75
2018-12-02T01:57:10.836Z,3.25
2018-12-02T01:59:41.072Z,3.40
2018-12-02T02:02:11.053Z,2.85
2018-12-02T02:04:41.036Z,3.26
2018-12-02T02:07:11.025Z,3.60
2018-12-02T02:09:41.044Z,3.22
2018-12-02T02:12:11.152Z,3.65
2018-12-02T02:14:41.009Z,3.92
2018-12-02T02:17:11.128Z,3.25
2018-12-02T02:19:41.128Z,3.28
2018-12-02T02:22:12.230Z,3.95
2018-12-02T02:24:41.420Z,3.33
2018-12-02T02:27:11.144Z,3.98
2018-12-02T02:29:41.348Z,3.64
2018-12-02T02:32:11.337Z,3.40
2018-12-02T02:34:42.155Z,4.20
2018-12-02T02:37:11.424Z,4.17
2018-12-02T02:39:41.395Z,3.48
2018-12-02T02:42:11.353Z,4.53
2018-12-02T02:44:41.452Z,4.80
2018-12-02T02:47:11.497Z,3.40
2018-12-02T02:49:41.497Z,3.42
2018-12-02T02:52:11.473Z,4.22
2018-12-02T02:54:41.484Z,4.06
2018-12-02T02:57:11.492Z,3.80
2018-12-02T02:59:41.488Z,4.02
2018-12-02T03:02:11.601Z,3.37
2018-12-02T03:04:41.627Z,3.87
2018-12-02T03:07:12.917Z,4.17
2018-12-02T03:09:42.032Z,4.45
2018-12-02T03:12:11.700Z,3.35
2018-12-02T03:14:41.681Z,3.34
2018-12-02T03:17:11.684Z,3.22
2018-12-02T03:19:41.832Z,3.64
2018-12-02T03:22:11.790Z,3.58
2018-12-02T03:24:41.808Z,3.58
2018-12-02T03:27:11.862Z,3.40
2018-12-02T03:29:41.920Z,3.48
2018-12-02T03:32:13.693Z,3.15
2018-12-02T03:34:42.885Z,3.10
2018-12-02T03:37:12.245Z,3.10
2018-12-02T03:39:42.077Z,3.72
2018-12-02T03:42:12.092Z,3.92
2018-12-02T03:44:42.192Z,3.70
2018-12-02T03:47:20.625Z,3.65
2018-12-02T03:49:49.789Z,3.70
2018-12-02T03:52:19.364Z,2.73
2018-12-02T03:54:48.501Z,3.42
2018-12-02T03:57:17.595Z,4.10
2018-12-02T03:59:46.748Z,3.50
2018-12-02T04:02:15.916Z,3.30
2018-12-02T04:04:45.136Z,2.77
2018-12-02T04:07:14.245Z,2.93
2018-12-02T04:09:43.402Z,3.17
2018-12-02T04:12:12.585Z,2.90
2018-12-02T04:14:42.537Z,3.08
2018-12-02T04:17:12.613Z,3.05
2018-12-02T04:19:42.498Z,2.30
2018-12-02T04:22:12.628Z,3.70
2018-12-02T04:24:42.700Z,3.16
2018-12-02T04:27:12.808Z,3.25
2018-12-02T04:29:42.793Z,2.48
2018-12-02T04:32:12.727Z,2.83
2018-12-02T04:34:42.769Z,2.04
2018-12-02T04:37:12.789Z,2.52
2018-12-02T04:39:42.858Z,2.98
2018-12-02T04:42:12.841Z,2.33
2018-12-02T04:44:42.773Z,2.44
2018-12-02T04:47:12.932Z,2.90
2018-12-02T04:49:43.088Z,3.12
2018-12-02T04:52:13.077Z,2.70
2018-12-02T04:54:44.188Z,2.98
2018-12-02T04:57:13.387Z,2.63
2018-12-02T04:59:43.131Z,2.30
2018-12-02T05:02:13.125Z,3.20
2018-12-02T05:04:43.150Z,2.34
2018-12-02T05:07:13.124Z,2.67
2018-12-02T05:09:43.346Z,2.42
2018-12-02T05:12:13.279Z,2.52
2018-12-02T05:14:43.235Z,2.70
2018-12-02T05:17:13.201Z,2.62
2018-12-02T05:19:43.391Z,2.56
2018-12-02T05:22:13.256Z,2.42
2018-12-02T05:24:43.257Z,2.58
2018-12-02T05:27:13.247Z,2.70
2018-12-02T05:29:43.340Z,2.87
2018-12-02T05:32:13.329Z,2.65
2018-12-02T05:34:43.439Z,2.20
2018-12-02T05:37:13.439Z,3.08
2018-12-02T05:39:44.244Z,3.02
2018-12-02T05:42:18.464Z,2.30
2018-12-02T05:44:47.666Z,1.90
2018-12-02T05:47:16.853Z,2.67
2018-12-02T05:49:46.058Z,2.30
2018-12-02T05:52:15.284Z,2.60
2018-12-02T05:54:44.453Z,2.22
2018-12-02T05:57:13.617Z,2.60
2018-12-02T05:59:43.545Z,2.30
2018-12-02T06:02:13.560Z,2.25
2018-12-02T06:04:43.556Z,2.60
2018-12-02T06:07:13.576Z,2.52
2018-12-02T06:09:43.625Z,2.28
2018-12-02T06:12:13.484Z,2.20
2018-12-02T06:14:43.677Z,2.62
2018-12-02T06:17:13.576Z,2.05
2018-12-02T06:19:43.648Z,2.10
2018-12-02T06:22:13.732Z,2.25
2018-12-02T06:24:43.667Z,1.64
2018-12-02T06:27:13.636Z,2.25
2018-12-02T06:29:43.645Z,2.30
2018-12-02T06:32:13.761Z,2.00
2018-12-02T06:34:43.595Z,2.04
2018-12-02T06:37:13.664Z,2.87
2018-12-02T06:39:43.700Z,2.52
2018-12-02T06:42:13.811Z,2.40
2018-12-02T06:44:43.789Z,1.70
2018-12-02T06:47:13.824Z,2.15
2018-12-02T06:49:44.765Z,1.94
2018-12-02T06:52:14.013Z,1.60
2018-12-02T06:54:43.760Z,1.40
2018-12-02T06:57:13.980Z,2.05
2018-12-02T06:59:49.609Z,2.18
2018-12-02T07:03:32.836Z,1.96
2018-12-02T07:06:02.053Z,1.70
2018-12-02T07:08:31.199Z,2.13
2018-12-02T07:11:01.698Z,1.77
2018-12-02T07:13:30.808Z,2.10
2018-12-02T07:16:00.918Z,1.70
2018-12-02T07:18:32.449Z,1.93
2018-12-02T07:21:01.792Z,1.87
2018-12-02T07:23:30.964Z,2.03
2018-12-02T07:26:00.229Z,1.97
2018-12-02T07:28:29.357Z,2.40
2018-12-02T07:30:58.548Z,1.83
2018-12-02T07:33:27.729Z,2.17
2018-12-02T07:35:56.900Z,4.67
2018-12-02T07:38:41.574Z,2.33
2018-12-02T07:41:11.355Z,2.40
2018-12-02T07:43:40.481Z,2.67
2018-12-02T07:46:09.666Z,2.60
2018-12-02T07:48:38.736Z,2.50
2018-12-02T07:51:07.926Z,2.07
2018-12-02T07:53:37.046Z,2.40
2018-12-02T07:56:06.498Z,2.93
2018-12-02T07:58:35.648Z,3.10
2018-12-02T08:01:04.843Z,3.60
2018-12-02T08:03:33.991Z,2.90
2018-12-02T08:06:03.208Z,3.20
2018-12-02T08:08:32.455Z,2.80
2018-12-02T08:11:01.556Z,3.10
2018-12-02T08:13:30.677Z,3.40
2018-12-02T08:15:59.863Z,4.60
2018-12-02T08:18:28.988Z,3.83
2018-12-02T08:20:58.186Z,3.77
2018-12-02T08:23:27.524Z,2.97
2018-12-02T08:25:56.721Z,3.83
2018-12-02T08:28:25.940Z,3.40
2018-12-02T08:30:55.173Z,3.77
2018-12-02T08:33:24.468Z,3.50
2018-12-02T08:35:53.666Z,5.53
2018-12-02T08:38:22.880Z,2.83
2018-12-02T08:40:52.302Z,3.33
2018-12-02T08:43:21.476Z,2.40
2018-12-02T08:45:50.624Z,2.05
2018-12-02T08:48:19.726Z,2.35
2018-12-02T08:50:48.851Z,2.73
2018-12-02T08:53:18.028Z,2.27
2018-12-02T08:55:47.264Z,2.47
2018-12-02T08:58:16.440Z,2.40
2018-12-02T09:00:46.474Z,2.62
2018-12-02T09:03:15.831Z,2.40
2018-12-02T09:05:45.947Z,2.16
2018-12-02T09:08:15.928Z,2.20
2018-12-02T09:10:46.407Z,3.50
2018-12-02T09:13:15.871Z,2.52
2018-12-02T09:15:46.015Z,2.60
2018-12-02T09:18:15.967Z,2.77
2018-12-02T09:20:46.113Z,3.40
2018-12-02T09:23:16.052Z,3.35
2018-12-02T09:25:45.928Z,3.36
2018-12-02T09:28:16.070Z,5.16
2018-12-02T09:30:46.036Z,3.34
2018-12-02T09:33:17.245Z,3.50
2018-12-02T09:35:46.448Z,2.85
2018-12-02T09:38:16.171Z,3.55
2018-12-02T09:40:46.248Z,3.15
2018-12-02T09:43:16.410Z,2.52
2018-12-02T09:45:46.145Z,2.60
2018-12-02T09:48:16.239Z,3.80
2018-12-02T09:50:46.264Z,3.30
2018-12-02T09:53:17.225Z,4.20
2018-12-02T09:55:48.219Z,3.62
2018-12-02T09:58:25.180Z,3.87
2018-12-02T10:00:56.053Z,3.35
2018-12-02T10:03:25.242Z,3.23
2018-12-02T10:05:54.401Z,3.10
2018-12-02T10:08:23.484Z,3.80
2018-12-02T10:10:52.868Z,2.60
2018-12-02T10:13:23.742Z,2.80
2018-12-02T10:15:52.962Z,3.63
2018-12-02T10:18:22.111Z,3.50
2018-12-02T10:20:51.312Z,3.43
2018-12-02T10:23:20.441Z,4.37
2018-12-02T10:25:49.639Z,3.60
2018-12-02T10:28:18.756Z,3.37
2018-12-02T10:30:47.864Z,3.50
2018-12-02T10:33:17.100Z,4.78
2018-12-02T10:35:46.147Z,3.25
2018-12-02T10:38:15.280Z,3.10
2018-12-02T10:40:44.428Z,2.87
2018-12-02T10:43:13.548Z,2.70
2018-12-02T10:45:42.964Z,2.58
2018-12-02T10:48:13.331Z,2.85
2018-12-02T10:50:43.033Z,2.50
2018-12-02T10:53:21.293Z,2.75
2018-12-02T10:55:56.140Z,2.47
2018-12-02T10:58:27.127Z,2.70
2018-12-02T11:01:04.227Z,2.40
2018-12-02T11:03:33.574Z,3.80
2018-12-02T11:06:02.984Z,3.00
2018-12-02T11:08:32.191Z,3.00
2018-12-02T11:11:01.324Z,2.30
2018-12-02T11:13:31.822Z,3.13
2018-12-02T11:16:01.029Z,2.30
2018-12-02T11:18:30.199Z,2.20
2018-12-02T11:20:59.387Z,3.00
2018-12-02T11:23:28.418Z,2.00
2018-12-02T11:25:57.633Z,2.30
2018-12-02T11:28:27.421Z,2.77
2018-12-02T11:30:56.536Z,2.07
2018-12-02T11:33:25.722Z,2.50
2018-12-02T11:35:54.913Z,2.90
2018-12-02T11:38:24.047Z,3.67
2018-12-02T11:40:53.410Z,16.80
2018-12-02T11:43:22.557Z,8.50
2018-12-02T11:45:51.714Z,3.07
2018-12-02T11:48:20.924Z,4.57
2018-12-02T11:50:50.802Z,2.70
2018-12-02T11:53:19.816Z,2.40
2018-12-02T11:55:48.936Z,2.42
2018-12-02T11:58:18.005Z,2.10
2018-12-02T12:00:47.292Z,2.17
2018-12-02T12:03:16.405Z,2.53
2018-12-02T12:05:47.689Z,2.10
2018-12-02T12:08:16.767Z,2.30
2018-12-02T12:10:45.896Z,2.90
2018-12-02T12:13:15.500Z,2.72
2018-12-02T12:15:44.735Z,2.72
2018-12-02T12:18:14.537Z,2.50
2018-12-02T12:20:44.713Z,1.90
2018-12-02T12:23:19.151Z,2.70
2018-12-02T12:25:48.323Z,2.30
2018-12-02T12:28:17.424Z,1.93
2018-12-02T12:30:46.582Z,2.40
2018-12-02T12:33:15.712Z,1.80
2018-12-02T12:35:48.679Z,1.98
2018-12-02T12:38:17.877Z,2.53
2018-12-02T12:40:49.601Z,2.37
2018-12-02T12:43:25.924Z,2.20
2018-12-02T12:45:55.147Z,1.90
2018-12-02T12:48:24.407Z,2.37
2018-12-02T12:50:53.554Z,2.40
2018-12-02T12:53:22.687Z,1.80
2018-12-02T12:55:51.873Z,2.43
2018-12-02T12:58:21.147Z,3.00
2018-12-02T13:00:51.674Z,4.17
2018-12-02T13:03:20.910Z,4.45
2018-12-02T13:05:50.160Z,2.43
2018-12-02T13:08:19.327Z,2.70
2018-12-02T13:10:48.499Z,2.53
2018-12-02T13:13:17.588Z,2.87
2018-12-02T13:15:46.764Z,2.30
2018-12-02T13:18:15.849Z,2.67
2018-12-02T13:20:50.074Z,2.77
2018-12-02T13:23:19.204Z,2.85
2018-12-02T13:25:50.283Z,2.42
2018-12-02T13:28:19.487Z,2.30
2018-12-02T13:30:48.808Z,2.27
2018-12-02T13:33:18.051Z,1.90
2018-12-02T13:35:47.303Z,2.63
2018-12-02T13:38:16.364Z,2.10
2018-12-02T13:40:45.638Z,2.80
2018-12-02T13:43:20.592Z,2.40
2018-12-02T13:45:50.744Z,1.87
2018-12-02T13:48:20.049Z,2.12
2018-12-02T13:50:49.258Z,1.77
2018-12-02T13:53:18.488Z,2.07
2018-12-02T13:55:47.716Z,1.43
2018-12-02T13:58:16.880Z,1.70
2018-12-02T14:00:46.009Z,1.37
2018-12-02T14:03:15.857Z,1.45
2018-12-02T14:05:48.100Z,1.30
2018-12-02T14:08:17.304Z,1.70
2018-12-02T14:10:46.668Z,1.37
2018-12-02T14:13:23.872Z,1.20
2018-12-02T14:17:06.070Z,1.10
2018-12-02T14:19:35.383Z,0.93
2018-12-02T14:22:04.479Z,0.90
2018-12-02T14:24:33.664Z,0.77
2018-12-02T14:27:02.924Z,0.90
2018-12-02T14:29:36.173Z,0.70
2018-12-02T14:32:12.185Z,0.80
2018-12-02T14:34:41.418Z,0.77
2018-12-02T14:37:10.627Z,0.77
2018-12-02T14:39:39.756Z,0.70
2018-12-02T14:42:08.924Z,0.90
2018-12-02T14:44:38.067Z,0.80
2018-12-02T14:47:07.399Z,1.03
2018-12-02T14:49:36.661Z,0.70
2018-12-02T14:52:06.465Z,0.60
2018-12-02T14:54:37.875Z,0.60
2018-12-02T14:57:07.038Z,0.70
2018-12-02T14:59:36.264Z,7.70
2018-12-02T15:02:05.744Z,1.27
2018-12-02T15:04:34.972Z,1.47
2018-12-02T15:07:04.088Z,0.82
2018-12-02T15:09:33.417Z,0.80
2018-12-02T15:12:02.575Z,0.90
2018-12-02T15:14:31.802Z,0.98
2018-12-02T15:17:00.980Z,1.00
2018-12-02T15:19:31.465Z,0.87
2018-12-02T15:22:00.677Z,0.80
2018-12-02T15:24:29.756Z,1.15
2018-12-02T15:27:00.168Z,0.80
2018-12-02T15:29:30.041Z,0.70
2018-12-02T15:31:59.085Z,0.90
2018-12-02T15:34:28.284Z,0.90
2018-12-02T15:36:57.423Z,0.93
2018-12-02T15:39:26.625Z,0.90
2018-12-02T15:41:55.848Z,0.70
2018-12-02T15:44:24.957Z,0.80
2018-12-02T15:46:54.137Z,0.80
2018-12-02T15:49:23.330Z,0.60
2018-12-02T15:51:52.496Z,1.60
2018-12-02T15:54:21.748Z,0.70
2018-12-02T15:56:50.960Z,0.70
2018-12-02T15:59:20.129Z,0.90
2018-12-02T16:01:49.299Z,0.70
2018-12-02T16:04:18.441Z,0.80
2018-12-02T16:06:47.633Z,0.70
2018-12-02T16:09:17.852Z,1.10
2018-12-02T16:11:47.004Z,0.80
2018-12-02T16:14:17.937Z,1.05
2018-12-02T16:16:47.144Z,0.80
2018-12-02T16:19:17.906Z,0.82
2018-12-02T16:21:47.116Z,1.12
2018-12-02T16:24:17.936Z,0.82
2018-12-02T16:26:47.179Z,0.70
2018-12-02T16:29:18.045Z,0.88
2018-12-02T16:31:47.297Z,0.80
2018-12-02T16:34:16.954Z,0.80
2018-12-02T16:36:46.980Z,0.90
2018-12-02T16:39:17.023Z,0.90
2018-12-02T16:41:50.648Z,0.70
2018-12-02T16:44:19.865Z,0.90
2018-12-02T16:46:49.092Z,3.00
2018-12-02T16:49:19.095Z,0.80
2018-12-02T16:51:48.205Z,0.70
2018-12-02T16:54:17.312Z,0.83
2018-12-02T16:56:47.445Z,0.72
2018-12-02T16:59:24.944Z,0.90
2018-12-02T17:01:57.805Z,0.70
2018-12-02T17:04:27.020Z,0.70
2018-12-02T17:06:56.206Z,0.72
2018-12-02T17:09:25.404Z,0.78
2018-12-02T17:11:54.520Z,0.90
2018-12-02T17:14:23.715Z,0.80
2018-12-02T17:16:52.937Z,0.70
2018-12-02T17:19:22.056Z,0.80
2018-12-02T17:21:51.220Z,0.80
2018-12-02T17:24:20.401Z,1.03
2018-12-02T17:26:49.680Z,0.80
2018-12-02T17:29:20.671Z,0.80
2018-12-02T17:32:00.529Z,1.93
2018-12-02T17:34:29.731Z,0.70
2018-12-02T17:36:58.859Z,0.80
2018-12-02T17:39:30.771Z,0.90
2018-12-02T17:42:02.928Z,0.80
2018-12-02T17:44:32.124Z,1.00
2018-12-02T17:47:01.311Z,0.75
2018-12-02T17:49:30.532Z,1.00
2018-12-02T17:51:59.751Z,0.73
2018-12-02T17:54:28.900Z,1.15
2018-12-02T17:56:58.014Z,0.83
2018-12-02T17:59:27.325Z,1.43
2018-12-02T18:01:56.435Z,0.90
2018-12-02T18:04:25.572Z,0.90
2018-12-02T18:06:54.828Z,0.70
2018-12-02T18:09:24.014Z,1.00
2018-12-02T18:11:53.179Z,1.02
2018-12-02T18:14:22.336Z,0.90
2018-12-02T18:16:51.552Z,0.83
2018-12-02T18:19:20.758Z,0.80
2018-12-02T18:21:49.908Z,0.80
2018-12-02T18:24:19.151Z,0.90
2018-12-02T18:26:48.332Z,1.17
2018-12-02T18:29:18.928Z,1.00
2018-12-02T18:31:48.064Z,0.90
2018-12-02T18:34:19.260Z,0.88
2018-12-02T18:36:48.617Z,1.10
2018-12-02T18:39:19.248Z,0.88
2018-12-02T18:41:51.724Z,1.07
2018-12-02T18:44:20.909Z,0.80
2018-12-02T18:46:50.305Z,0.90
2018-12-02T18:49:19.366Z,0.73
2018-12-02T18:51:48.512Z,0.90
2018-12-02T18:54:19.014Z,0.80
2018-12-02T18:56:48.267Z,1.00
2018-12-02T18:59:20.684Z,0.90
2018-12-02T19:01:49.896Z,0.90
2018-12-02T19:04:19.215Z,1.00
2018-12-02T19:06:48.349Z,0.97
2018-12-02T19:09:18.088Z,0.87
2018-12-02T19:11:48.376Z,1.00
2018-12-02T19:14:17.812Z,0.87
2018-12-02T19:16:48.129Z,1.00
2018-12-02T19:19:17.959Z,0.85
2018-12-02T19:21:48.260Z,0.80
2018-12-02T19:24:18.078Z,0.95
2018-12-02T19:26:48.272Z,0.90
2018-12-02T19:29:18.076Z,0.80
2018-12-02T19:31:48.393Z,1.00
2018-12-02T19:34:17.924Z,1.30
2018-12-02T19:36:59.589Z,0.80
2018-12-02T19:39:28.792Z,0.88
2018-12-02T19:41:57.964Z,1.60
2018-12-02T19:44:27.089Z,0.80
2018-12-02T19:46:56.182Z,0.60
2018-12-02T19:49:25.365Z,0.70
2018-12-02T19:51:54.592Z,1.00
2018-12-02T19:54:23.816Z,0.90
2018-12-02T19:56:52.981Z,0.70
2018-12-02T19:59:22.167Z,1.00
2018-12-02T20:01:51.408Z,0.80
2018-12-02T20:04:20.540Z,0.90
2018-12-02T20:06:49.784Z,0.80
2018-12-02T20:09:19.901Z,1.35
2018-12-02T20:11:49.076Z,0.90
2018-12-02T20:14:18.254Z,0.77
2018-12-02T20:16:47.475Z,1.00
2018-12-02T20:19:23.073Z,0.70
2018-12-02T20:21:52.279Z,0.60
2018-12-02T20:24:26.680Z,0.80
2018-12-02T20:26:55.839Z,0.80
2018-12-02T20:29:25.004Z,0.80
2018-12-02T20:31:54.196Z,0.60
2018-12-02T20:34:23.417Z,1.00
2018-12-02T20:36:52.580Z,0.70
2018-12-02T20:39:21.754Z,0.70
2018-12-02T20:41:50.972Z,0.70
2018-12-02T20:44:20.158Z,0.60
2018-12-02T20:46:49.328Z,0.80
2018-12-02T20:49:19.193Z,0.82
2018-12-02T20:51:49.167Z,0.70
2018-12-02T20:54:19.127Z,0.88
2018-12-02T20:56:49.276Z,0.72
2018-12-02T20:59:19.243Z,0.70
2018-12-02T21:01:49.189Z,0.70
2018-12-02T21:04:20.256Z,0.78
2018-12-02T21:06:49.428Z,0.70
2018-12-02T21:09:19.373Z,0.60
2018-12-02T21:11:49.300Z,0.60
2018-12-02T21:14:19.439Z,0.78
2018-12-02T21:16:49.358Z,0.80
2018-12-02T21:19:19.498Z,0.70
2018-12-02T21:21:49.456Z,0.70
2018-12-02T21:29:15.572Z,0.87
2018-12-02T21:31:44.727Z,0.70
2018-12-02T21:34:13.872Z,0.67
2018-12-02T21:36:43.038Z,0.70
2018-12-02T21:39:12.247Z,0.70
2018-12-02T21:41:41.495Z,0.70
2018-12-02T21:44:10.689Z,0.60
2018-12-02T21:46:39.850Z,0.67
2018-12-02T21:49:09.042Z,0.60
2018-12-02T21:51:38.200Z,0.60
2018-12-02T21:54:07.590Z,0.70
2018-12-02T21:56:36.732Z,0.70
2018-12-02T21:59:06.096Z,0.70
2018-12-02T22:01:35.200Z,0.70
2018-12-02T22:04:04.364Z,1.10
2018-12-02T22:06:33.593Z,0.60
2018-12-02T22:09:02.814Z,0.70
2018-12-02T22:11:32.019Z,0.80
2018-12-02T22:14:01.207Z,0.60
2018-12-02T22:16:30.437Z,0.90
2018-12-02T22:18:59.674Z,0.70
2018-12-02T22:21:28.754Z,0.80
2018-12-02T22:24:01.236Z,0.90
2018-12-02T22:26:27.169Z,0.70
2018-12-02T22:28:57.427Z,0.90
2018-12-02T22:31:25.511Z,0.90
2018-12-02T22:33:54.875Z,0.90
2018-12-02T22:36:24.005Z,0.88
2018-12-02T22:38:53.336Z,0.90
2018-12-02T22:41:22.549Z,0.70
2018-12-02T22:43:51.668Z,0.80
2018-12-02T22:46:20.892Z,0.67
2018-12-02T22:48:50.256Z,0.80
2018-12-02T22:51:20.284Z,0.80
2018-12-02T22:53:50.412Z,0.70
2018-12-02T22:56:21.268Z,1.20
2018-12-02T22:58:50.554Z,0.90
2018-12-02T23:01:26.323Z,1.00
2018-12-02T23:03:54.996Z,0.85
2018-12-02T23:06:24.163Z,0.80
2018-12-02T23:08:53.482Z,0.80
2018-12-02T23:11:22.632Z,0.65
2018-12-02T23:13:51.763Z,0.90
2018-12-02T23:16:20.832Z,0.70
2018-12-02T23:18:50.536Z,0.98
2018-12-02T23:21:21.504Z,0.95
2018-12-02T23:23:50.696Z,0.70
2018-12-02T23:26:20.574Z,0.60
2018-12-02T23:28:52.059Z,0.70
2018-12-02T23:31:21.160Z,0.70
2018-12-02T23:33:51.046Z,0.80
2018-12-02T23:36:20.661Z,0.80
2018-12-02T23:38:50.716Z,0.75
2018-12-02T23:41:20.699Z,0.70
2018-12-02T23:43:50.712Z,0.78
2018-12-02T23:46:20.656Z,0.70
2018-12-02T23:48:50.708Z,0.60
2018-12-02T23:51:20.816Z,0.70
2018-12-02T23:53:50.828Z,0.70
2018-12-02T23:56:20.853Z,0.68
2018-12-02T23:58:50.896Z,0.70
